Time;durP1;ratioP1;P1;durP2;ratioP2;P2;SDS_P1;SDS_P2;PMS_P1;PMS_P2;Temp;Humidity;BMP_temperature;BMP_pressure;BME280_temperature;BME280_humidity;BME280_pressure;Samples;Min_cycle;Max_cycle;Signal;HPM_P1;HPM_P2
2023/10/17 00:01:55;;;;;;;20.98;10.68;;;6.10;99.90;;;;;;4911025;29;20049;-87
2023/10/17 00:06:47;;;;;;;18.73;10.50;;;6.60;99.90;;;;;;4897890;29;20067;-87
2023/10/17 00:09:22;;;;;;;16.73;9.30;;;5.80;99.90;;;;;;4898535;29;20060;-87
2023/10/17 00:11:58;;;;;;;16.70;9.27;;;5.70;99.90;;;;;;4899821;29;20060;-87
2023/10/17 00:14:27;;;;;;;18.20;9.77;;;5.40;99.90;;;;;;4896756;29;20045;-87
2023/10/17 00:16:55;;;;;;;17.10;8.83;;;6.90;99.90;;;;;;4898733;29;20053;-87
2023/10/17 00:19:25;;;;;;;17.30;9.63;;;5.60;99.90;;;;;;4897658;29;20510;-87
2023/10/17 00:21:51;;;;;;;16.20;9.37;;;6.60;99.90;;;;;;4897699;29;20176;-87
2023/10/17 00:24:19;;;;;;;15.63;8.33;;;6.60;99.90;;;;;;4898306;29;20052;-87
2023/10/17 00:26:47;;;;;;;17.17;9.03;;;5.90;99.90;;;;;;4897431;29;20044;-87
2023/10/17 00:29:14;;;;;;;17.83;9.13;;;5.80;99.90;;;;;;4898132;29;20063;-87
2023/10/17 00:31:40;;;;;;;15.83;8.80;;;5.40;99.90;;;;;;4897884;29;20057;-87
2023/10/17 00:34:27;;;;;;;16.03;8.20;;;7.50;99.90;;;;;;4896838;29;20056;-87
2023/10/17 00:39:33;;;;;;;17.60;9.00;;;6.40;99.90;;;;;;4899359;29;20076;-87
2023/10/17 00:44:33;;;;;;;17.40;8.63;;;7.30;99.90;;;;;;4929693;29;20064;-87
2023/10/17 00:47:00;;;;;;;16.03;8.07;;;6.10;99.90;;;;;;4897288;29;20500;-87
2023/10/17 00:49:37;;;;;;;14.80;7.70;;;6.60;99.90;;;;;;4896476;29;20048;-87
2023/10/17 00:52:03;;;;;;;15.73;7.63;;;6.10;99.90;;;;;;4898816;29;20401;-87
2023/10/17 00:54:32;;;;;;;16.37;7.97;;;6.20;99.90;;;;;;4897747;29;20048;-86
2023/10/17 00:57:05;;;;;;;16.73;7.60;;;5.90;99.90;;;;;;4897267;29;20390;-87
2023/10/17 00:59:31;;;;;;;14.70;6.45;;;6.50;99.90;;;;;;4897374;29;20053;-87
2023/10/17 01:01:57;;;;;;;14.17;6.80;;;7.60;99.90;;;;;;4897912;29;20048;-87
2023/10/17 01:04:24;;;;;;;12.50;5.60;;;7.20;99.90;;;;;;4897294;29;20048;-87
2023/10/17 01:06:54;;;;;;;13.23;6.07;;;6.50;99.90;;;;;;4896753;29;20041;-87
2023/10/17 01:09:24;;;;;;;12.87;6.40;;;6.20;99.90;;;;;;4909544;29;20374;-86
2023/10/17 01:11:50;;;;;;;12.77;6.33;;;6.10;99.90;;;;;;4910087;29;20044;-87
2023/10/17 01:14:19;;;;;;;12.07;6.20;;;6.50;99.90;;;;;;4881593;29;20044;-87
2023/10/17 01:16:51;;;;;;;13.07;5.87;;;6.00;99.90;;;;;;4877887;29;20045;-87
2023/10/17 01:19:21;;;;;;;11.87;6.47;;;7.50;99.90;;;;;;4878586;29;20084;-87
2023/10/17 01:21:48;;;;;;;14.63;6.13;;;6.00;99.90;;;;;;4878974;29;20091;-87
2023/10/17 01:24:14;;;;;;;14.57;6.80;;;5.80;99.90;;;;;;4878724;29;20401;-87
2023/10/17 01:26:45;;;;;;;13.63;6.13;;;5.70;99.90;;;;;;4927502;29;20055;-87
2023/10/17 01:29:11;;;;;;;13.77;6.30;;;4.90;99.90;;;;;;4928335;29;20061;-87
2023/10/17 01:31:43;;;;;;;13.40;6.67;;;6.00;99.90;;;;;;4896315;29;20056;-87
2023/10/17 01:34:09;;;;;;;14.10;5.73;;;6.40;99.90;;;;;;4897571;29;20059;-86
2023/10/17 01:36:35;;;;;;;14.20;5.70;;;6.70;99.90;;;;;;4895491;29;20045;-87
2023/10/17 01:39:11;;;;;;;13.63;6.03;;;6.80;99.90;;;;;;4926835;29;20055;-87
2023/10/17 01:41:48;;;;;;;13.27;5.77;;;6.80;99.90;;;;;;4896618;29;20092;-87
2023/10/17 01:44:14;;;;;;;13.27;5.73;;;5.70;99.90;;;;;;4896745;29;20364;-87
2023/10/17 01:46:43;;;;;;;11.97;5.80;;;5.80;99.90;;;;;;4898412;29;20053;-87
2023/10/17 01:49:13;;;;;;;13.33;5.47;;;6.40;99.90;;;;;;4897777;29;20187;-87
2023/10/17 01:51:48;;;;;;;14.87;5.53;;;5.60;99.90;;;;;;4896494;29;20448;-87
2023/10/17 01:54:16;;;;;;;13.87;5.30;;;6.10;99.90;;;;;;4897020;29;20413;-87
2023/10/17 01:56:47;;;;;;;12.13;5.33;;;5.20;99.90;;;;;;4880739;29;20060;-87
2023/10/17 01:59:13;;;;;;;11.77;5.27;;;5.90;99.90;;;;;;4877088;29;20522;-87
2023/10/17 02:01:40;;;;;;;10.73;5.00;;;5.90;99.90;;;;;;4921013;29;20053;-87
2023/10/17 02:04:12;;;;;;;12.17;5.80;;;7.10;99.90;;;;;;4896292;29;20048;-87
2023/10/17 02:06:39;;;;;;;13.57;5.30;;;5.80;99.90;;;;;;4897355;29;20072;-87
2023/10/17 02:09:23;;;;;;;13.67;5.50;;;6.40;99.90;;;;;;4897965;29;20044;-87
2023/10/17 02:11:54;;;;;;;11.90;5.80;;;5.70;99.90;;;;;;4897881;29;20052;-87
2023/10/17 02:14:20;;;;;;;12.50;5.60;;;5.70;99.90;;;;;;4926728;29;20493;-86
2023/10/17 02:16:46;;;;;;;13.20;5.83;;;5.60;99.90;;;;;;4896337;29;20060;-87
2023/10/17 02:19:12;;;;;;;13.20;5.50;;;6.40;99.90;;;;;;4894926;29;20067;-87
2023/10/17 02:21:44;;;;;;;11.97;5.60;;;6.70;99.90;;;;;;4897652;29;20090;-87
2023/10/17 02:24:10;;;;;;;11.57;5.33;;;5.60;99.90;;;;;;4896387;29;20408;-87
2023/10/17 02:26:43;;;;;;;13.50;6.20;;;6.10;99.90;;;;;;4895463;29;20048;-87
2023/10/17 02:29:12;;;;;;;13.43;5.72;;;5.90;99.90;;;;;;4896393;29;20049;-87
2023/10/17 02:31:40;;;;;;;12.10;6.07;;;5.70;99.90;;;;;;4927610;29;20426;-87
2023/10/17 02:34:09;;;;;;;11.77;5.50;;;6.70;99.90;;;;;;4895458;29;20063;-87
2023/10/17 02:36:35;;;;;;;10.27;5.40;;;6.50;99.90;;;;;;4897174;29;20119;-87
2023/10/17 02:39:01;;;;;;;11.03;5.53;;;5.50;99.90;;;;;;4895971;29;20139;-87
2023/10/17 02:41:28;;;;;;;12.43;6.00;;;6.80;99.90;;;;;;4895135;29;20049;-87
2023/10/17 02:43:54;;;;;;;10.73;5.43;;;6.70;99.90;;;;;;4897126;29;20405;-87
2023/10/17 02:46:24;;;;;;;12.93;5.40;;;5.70;99.90;;;;;;4895722;29;20052;-87
2023/10/17 02:48:51;;;;;;;13.07;5.73;;;5.60;99.90;;;;;;4897164;29;20052;-87
2023/10/17 02:53:53;;;;;;;11.77;5.17;;;5.50;99.90;;;;;;4901025;29;20460;-87
2023/10/17 02:56:19;;;;;;;11.63;5.40;;;5.40;99.90;;;;;;4894552;29;20060;-87
2023/10/17 02:58:48;;;;;;;11.20;5.57;;;4.80;99.90;;;;;;4882657;29;20048;-87
2023/10/17 03:01:14;;;;;;;13.40;5.57;;;6.50;99.90;;;;;;4881167;29;20049;-87
2023/10/17 03:03:43;;;;;;;13.90;5.43;;;6.60;99.90;;;;;;4880681;29;20400;-87
2023/10/17 03:06:10;;;;;;;10.20;5.23;;;5.20;99.90;;;;;;4880903;29;20045;-87
2023/10/17 03:08:39;;;;;;;12.03;5.50;;;5.00;99.90;;;;;;4911820;29;20060;-87
2023/10/17 03:11:08;;;;;;;11.90;5.20;;;5.00;99.90;;;;;;4881151;29;20132;-87
2023/10/17 03:13:40;;;;;;;12.20;5.40;;;6.50;99.90;;;;;;4881142;29;20053;-87
2023/10/17 03:16:18;;;;;;;12.33;5.00;;;4.80;99.90;;;;;;4880317;29;20056;-87
2023/10/17 03:18:50;;;;;;;11.87;5.40;;;4.70;99.90;;;;;;4897104;29;20049;-87
2023/10/17 03:21:18;;;;;;;12.90;5.40;;;4.50;99.90;;;;;;4880736;29;20057;-87
2023/10/17 03:24:04;;;;;;;11.57;5.43;;;5.80;99.90;;;;;;4880514;29;20081;-88
2023/10/17 03:26:39;;;;;;;12.70;5.57;;;5.70;99.90;;;;;;4882226;29;20080;-87
2023/10/17 03:29:19;;;;;;;11.93;5.50;;;5.20;99.90;;;;;;4880472;29;20517;-87
2023/10/17 03:31:52;;;;;;;10.73;5.50;;;5.50;99.90;;;;;;4879751;29;20053;-87
2023/10/17 03:34:29;;;;;;;12.70;5.75;;;4.50;99.90;;;;;;4879741;29;20060;-87
2023/10/17 03:36:55;;;;;;;11.63;5.53;;;4.20;99.90;;;;;;4879940;29;20093;-87
2023/10/17 03:39:27;;;;;;;10.93;5.30;;;4.40;99.90;;;;;;4880380;29;20057;-86
2023/10/17 03:41:56;;;;;;;10.93;5.40;;;4.20;99.90;;;;;;4880434;29;20079;-87
2023/10/17 03:44:31;;;;;;;12.87;5.73;;;3.70;99.90;;;;;;4879333;29;20053;-86
2023/10/17 03:47:04;;;;;;;12.13;5.37;;;4.80;99.90;;;;;;4880943;29;20057;-87
2023/10/17 03:49:36;;;;;;;12.30;5.37;;;4.20;99.90;;;;;;4881226;29;20120;-86
2023/10/17 03:52:08;;;;;;;12.03;5.80;;;5.50;99.90;;;;;;4879653;29;20053;-87
2023/10/17 03:54:38;;;;;;;13.13;5.37;;;5.60;99.90;;;;;;4881142;29;20113;-88
2023/10/17 03:57:13;;;;;;;12.10;6.00;;;4.10;99.90;;;;;;4880987;29;20092;-87
2023/10/17 03:59:40;;;;;;;12.70;5.77;;;4.80;99.90;;;;;;4877937;29;20049;-86
2023/10/17 04:02:17;;;;;;;11.50;5.17;;;4.80;99.90;;;;;;4887977;29;20100;-87
2023/10/17 04:05:17;;;;;;;12.83;5.87;;;4.60;99.90;;;;;;4895121;29;20430;-87
2023/10/17 04:07:36;;;;;;;13.70;5.57;;;5.20;99.90;;;;;;4899771;29;20053;-87
2023/10/17 04:12:48;;;;;;;13.33;5.33;;;4.20;99.90;;;;;;4898737;29;20851;-87
2023/10/17 04:15:18;;;;;;;11.67;5.23;;;5.00;99.90;;;;;;4930175;29;20052;-86
2023/10/17 04:17:46;;;;;;;11.80;5.67;;;4.70;99.90;;;;;;4898389;29;20449;-86
2023/10/17 04:20:12;;;;;;;13.50;5.93;;;3.80;99.90;;;;;;4897664;29;20040;-86
2023/10/17 04:22:43;;;;;;;12.27;5.47;;;4.00;99.90;;;;;;4930311;29;20056;-86
2023/10/17 04:27:59;;;;;;;11.90;5.50;;;5.40;99.90;;;;;;4898886;29;20049;-86
2023/10/17 04:30:46;;;;;;;11.93;5.03;;;3.90;99.90;;;;;;4929436;29;20072;-86
2023/10/17 04:33:19;;;;;;;10.07;5.23;;;5.20;99.90;;;;;;4897643;29;20064;-86
2023/10/17 04:35:48;;;;;;;14.70;5.95;;;3.90;99.90;;;;;;4929558;29;20454;-86
2023/10/17 04:38:26;;;;;;;10.43;5.27;;;3.80;99.90;;;;;;4898059;29;20056;-87
2023/10/17 04:41:30;;;;;;;12.80;5.87;;;4.30;99.90;;;;;;4898130;29;20128;-86
2023/10/17 04:43:55;;;;;;;13.87;6.33;;;3.00;99.90;;;;;;4899849;29;20492;-86
2023/10/17 04:46:29;;;;;;;11.93;5.80;;;3.00;99.90;;;;;;4897915;29;20296;-86
2023/10/17 04:49:06;;;;;;;12.57;5.43;;;5.00;99.90;;;;;;4929299;29;20500;-87
2023/10/17 04:51:31;;;;;;;11.93;5.77;;;4.80;99.90;;;;;;4898127;29;20044;-87
2023/10/17 04:54:05;;;;;;;13.43;6.93;;;4.80;99.90;;;;;;4897481;29;20059;-87
2023/10/17 04:56:52;;;;;;;13.23;6.38;;;3.70;99.90;;;;;;4898219;29;20057;-86
2023/10/17 04:59:28;;;;;;;12.23;6.03;;;5.40;99.90;;;;;;4898072;29;20044;-87
2023/10/17 05:02:13;;;;;;;13.60;5.87;;;3.80;99.90;;;;;;4899808;29;20437;-87
2023/10/17 05:05:38;;;;;;;15.73;6.70;;;5.10;99.90;;;;;;4898335;29;20072;-86
2023/10/17 06:18:59;;;;;;;;;;;3.90;99.90;;;;;;4916192;29;20056;-86
2023/10/17 06:21:38;;;;;;;16.37;8.33;;;4.00;99.90;;;;;;4899257;29;19927;-86
2023/10/17 06:27:12;;;;;;;14.33;8.07;;;3.90;99.90;;;;;;4922025;29;20444;-86
2023/10/17 06:32:15;;;;;;;16.57;8.20;;;3.80;99.90;;;;;;4922648;29;20048;-87
2023/10/17 06:34:43;;;;;;;18.70;8.23;;;3.80;99.90;;;;;;4905615;29;20547;-84
2023/10/17 06:37:09;;;;;;;16.13;8.63;;;3.80;99.90;;;;;;4932858;29;20101;-85
2023/10/17 06:39:37;;;;;;;17.83;9.33;;;3.80;99.90;;;;;;4886355;29;20048;-86
2023/10/17 06:42:28;;;;;;;19.83;8.70;;;3.90;99.90;;;;;;4887056;29;20053;-86
2023/10/17 06:44:54;;;;;;;17.07;9.60;;;3.80;99.90;;;;;;4887012;29;20473;-86
2023/10/17 06:47:40;;;;;;;16.93;9.17;;;4.50;99.90;;;;;;4902437;29;20040;-85
2023/10/17 06:55:21;;;;;;;21.20;12.67;;;4.00;99.90;;;;;;4920710;29;20079;-83
2023/10/17 06:57:50;;;;;;;22.10;14.07;;;4.10;99.90;;;;;;4897074;29;20068;-83
2023/10/17 07:00:42;;;;;;;22.60;13.03;;;4.20;99.90;;;;;;4918230;29;20369;-84
2023/10/17 07:03:09;;;;;;;25.87;15.77;;;4.30;99.90;;;;;;4907375;29;20048;-84
2023/10/17 07:05:36;;;;;;;24.83;16.17;;;5.40;99.90;;;;;;4912283;29;20148;-84
2023/10/17 07:08:02;;;;;;;28.83;17.47;;;4.50;99.90;;;;;;4920565;29;20130;-84
2023/10/17 07:13:35;;;;;;;30.90;19.13;;;4.80;99.90;;;;;;4922165;29;20044;-84
2023/10/17 07:16:11;;;;;;;33.45;19.48;;;4.90;99.90;;;;;;4921545;29;20052;-84
2023/10/17 07:18:44;;;;;;;31.10;18.80;;;5.00;99.90;;;;;;4922366;29;20063;-84
2023/10/17 07:23:42;;;;;;;27.83;18.43;;;5.10;99.90;;;;;;4921171;29;20059;-84
2023/10/17 07:26:24;;;;;;;27.53;17.40;;;5.10;99.90;;;;;;4921709;29;20075;-84
2023/10/17 07:28:50;;;;;;;24.90;17.07;;;5.20;99.90;;;;;;4921408;29;20052;-84
2023/10/17 07:31:16;;;;;;;23.57;14.70;;;5.20;99.90;;;;;;4904502;29;20052;-84
2023/10/17 07:33:43;;;;;;;25.00;13.43;;;5.30;99.90;;;;;;4921690;29;20416;-83
2023/10/17 07:36:18;;;;;;;21.13;13.17;;;5.30;99.90;;;;;;4917173;29;20044;-84
2023/10/17 07:38:47;;;;;;;20.40;12.37;;;5.40;99.90;;;;;;4933681;29;20076;-84
2023/10/17 07:41:36;;;;;;;19.40;12.43;;;5.50;99.90;;;;;;4901576;29;20059;-83
2023/10/17 07:44:08;;;;;;;16.87;11.03;;;5.60;99.90;;;;;;4932670;29;20066;-83
2023/10/17 07:46:34;;;;;;;20.93;12.03;;;5.60;99.90;;;;;;4916244;29;20044;-84
2023/10/17 07:49:07;;;;;;;17.40;10.67;;;6.70;99.90;;;;;;4918561;29;20484;-84
2023/10/17 07:51:32;;;;;;;17.70;10.20;;;5.80;99.90;;;;;;4900716;29;20056;-84
2023/10/17 07:53:58;;;;;;;15.93;9.50;;;5.80;99.90;;;;;;4901255;29;20067;-84
2023/10/17 07:56:25;;;;;;;16.70;9.27;;;5.90;99.90;;;;;;4917937;29;20048;-85
2023/10/17 07:59:15;;;;;;;15.10;8.97;;;5.90;99.90;;;;;;4917778;29;20044;-84
2023/10/17 08:01:42;;;;;;;14.27;8.23;;;6.00;99.90;;;;;;4918427;29;20048;-84
2023/10/17 08:04:29;;;;;;;14.87;7.53;;;6.10;99.90;;;;;;4932317;29;20131;-84
2023/10/17 08:06:56;;;;;;;14.87;8.33;;;6.10;99.90;;;;;;4913728;29;20055;-84
2023/10/17 08:11:52;;;;;;;14.50;6.87;;;6.20;99.90;;;;;;4937958;29;20147;-87
2023/10/17 08:14:18;;;;;;;12.10;6.60;;;6.30;99.90;;;;;;4937199;29;20058;-83
2023/10/17 08:16:46;;;;;;;12.40;7.00;;;6.40;99.90;;;;;;4920284;29;20472;-83
2023/10/17 08:19:15;;;;;;;12.53;6.33;;;6.50;99.90;;;;;;4918986;29;20039;-84
2023/10/17 08:24:40;;;;;;;13.30;6.17;;;6.60;99.90;;;;;;4951751;29;20110;-84
2023/10/17 08:27:13;;;;;;;14.47;5.70;;;7.30;99.90;;;;;;4950881;29;20086;-84
2023/10/17 08:29:43;;;;;;;14.53;5.93;;;6.90;99.90;;;;;;4919845;29;20047;-85
2023/10/17 08:32:38;;;;;;;11.57;5.37;;;7.00;99.90;;;;;;4918785;29;20154;-85
2023/10/17 08:35:09;;;;;;;11.43;5.27;;;8.30;99.90;;;;;;4951415;29;20496;-85
2023/10/17 08:37:43;;;;;;;12.23;4.83;;;7.30;99.90;;;;;;4919483;29;20040;-85
2023/10/17 08:43:14;;;;;;;11.23;4.60;;;8.20;99.90;;;;;;4928021;29;20506;-85
2023/10/17 08:45:41;;;;;;;12.37;4.30;;;8.40;99.90;;;;;;4903747;29;20035;-84
2023/10/17 08:48:11;;;;;;;10.80;3.70;;;7.40;99.90;;;;;;4918946;29;20117;-84
2023/10/17 08:50:37;;;;;;;9.67;3.60;;;7.50;99.90;;;;;;4919883;29;20052;-85
2023/10/17 08:53:13;;;;;;;9.63;3.93;;;7.60;99.90;;;;;;4899892;29;20044;-86
2023/10/17 08:55:40;;;;;;;9.33;3.77;;;8.60;99.90;;;;;;4917426;29;20527;-85
2023/10/17 08:58:08;;;;;;;9.17;3.40;;;8.30;99.90;;;;;;4936241;29;20058;-86
2023/10/17 09:03:29;;;;;;;7.83;2.80;;;8.00;99.90;;;;;;4951264;29;20377;-86
2023/10/17 09:08:43;;;;;;;8.87;3.03;;;8.20;99.90;;;;;;4950351;29;20374;-86
2023/10/17 09:11:14;;;;;;;9.00;2.80;;;8.30;99.90;;;;;;4935507;29;20396;-86
2023/10/17 09:14:11;;;;;;;6.30;2.47;;;9.60;99.90;;;;;;4919460;29;20052;-86
2023/10/17 09:16:34;;;;;;;9.17;2.63;;;8.50;99.90;;;;;;4935060;29;20062;-86
2023/10/17 09:19:09;;;;;;;8.60;2.80;;;9.40;99.90;;;;;;4918987;29;20059;-86
2023/10/17 09:21:35;;;;;;;7.20;2.03;;;8.70;99.90;;;;;;4918374;29;20043;-86
2023/10/17 09:24:05;;;;;;;6.85;2.08;;;10.10;99.90;;;;;;4936265;29;20062;-86
2023/10/17 09:26:31;;;;;;;8.90;2.72;;;8.80;99.90;;;;;;4919211;29;20507;-86
2023/10/17 09:29:00;;;;;;;6.40;2.03;;;9.20;99.90;;;;;;4918123;29;20047;-86
2023/10/17 09:31:26;;;;;;;9.05;2.00;;;9.90;99.90;;;;;;4918721;29;20056;-88
2023/10/17 09:33:53;;;;;;;6.55;1.80;;;10.20;99.90;;;;;;4918926;29;20055;-87
2023/10/17 09:36:19;;;;;;;7.35;2.10;;;9.00;99.90;;;;;;4918747;29;20048;-86
2023/10/17 09:38:46;;;;;;;6.00;1.98;;;9.20;99.90;;;;;;4916478;29;20492;-86
2023/10/17 09:41:18;;;;;;;7.93;1.90;;;10.60;99.90;;;;;;4899746;29;20055;-87
2023/10/17 09:43:49;;;;;;;6.35;1.83;;;9.40;99.90;;;;;;4899034;29;20056;-87
2023/10/17 09:46:16;;;;;;;5.57;1.70;;;9.50;99.90;;;;;;4916582;29;20059;-88
2023/10/17 09:48:44;;;;;;;7.53;1.95;;;9.50;99.90;;;;;;4900063;29;20052;-87
2023/10/17 09:51:12;;;;;;;8.97;1.80;;;10.90;99.90;;;;;;4899472;29;20058;-88
2023/10/17 09:53:40;;;;;;;7.60;1.93;;;11.00;99.90;;;;;;4899330;29;20564;-87
2023/10/17 09:56:16;;;;;;;5.87;1.70;;;9.90;99.90;;;;;;4898621;29;20134;-88
2023/10/17 09:58:47;;;;;;;5.60;1.70;;;10.50;99.90;;;;;;4930278;29;20131;-88
2023/10/17 10:01:20;;;;;;;7.43;1.70;;;10.90;99.90;;;;;;4899023;29;20441;-88
2023/10/17 10:03:48;;;;;;;5.70;1.60;;;10.10;99.90;;;;;;4915802;29;20044;-86
2023/10/17 10:06:22;;;;;;;5.97;1.77;;;9.70;99.90;;;;;;4899018;29;20048;-88
2023/10/17 10:08:48;;;;;;;;;;;11.20;99.90;;;;;;4929702;29;20437;-85
2023/10/17 10:11:15;;;;;;;4.97;1.70;;;10.50;99.90;;;;;;4898488;29;19974;-87
2023/10/17 10:14:04;;;;;;;4.75;1.65;;;11.30;99.90;;;;;;4901633;29;20048;-85
2023/10/17 10:16:57;;;;;;;5.18;1.55;;;10.50;99.90;;;;;;4913328;29;20541;-86
2023/10/17 10:19:27;;;;;;;6.50;1.60;;;10.70;99.90;;;;;;4883233;29;20052;-86
2023/10/17 10:22:00;;;;;;;4.45;1.65;;;10.80;99.90;;;;;;4898042;29;20108;-85
2023/10/17 10:24:36;;;;;;;5.70;1.52;;;11.70;99.90;;;;;;4881176;29;20048;-86
2023/10/17 10:27:14;;;;;;;6.07;1.85;;;12.50;99.90;;;;;;4881057;29;20048;-86
2023/10/17 10:29:40;;;;;;;9.40;1.70;;;12.00;99.90;;;;;;4881223;29;20070;-87
2023/10/17 10:32:33;;;;;;;5.65;1.95;;;12.70;99.90;;;;;;4897088;29;20044;-86
2023/10/17 10:35:00;;;;;;;5.75;1.63;;;11.50;99.90;;;;;;4897642;29;20044;-86
2023/10/17 10:37:25;;;;;;;6.60;1.90;;;12.80;99.90;;;;;;4912221;29;20059;-88
2023/10/17 10:40:12;;;;;;;4.78;1.60;;;12.70;99.90;;;;;;4881231;29;20048;-86
2023/10/17 10:43:11;;;;;;;4.63;1.60;;;11.80;99.90;;;;;;4911660;29;20060;-84
2023/10/17 10:45:50;;;;;;;6.68;1.80;;;11.80;99.90;;;;;;4879939;29;20049;-85
2023/10/17 10:48:17;;;;;;;5.25;1.70;;;12.00;99.90;;;;;;4897153;29;20464;-86
2023/10/17 10:50:55;;;;;;;5.63;1.70;;;12.10;99.90;;;;;;4880465;29;20060;-83
2023/10/17 10:53:33;;;;;;;5.60;2.00;;;13.40;99.90;;;;;;4910953;29;20077;-86
2023/10/17 10:56:09;;;;;;;5.10;1.80;;;13.50;99.90;;;;;;4912035;29;20048;-87
2023/10/17 10:58:51;;;;;;;5.43;1.48;;;12.40;99.90;;;;;;4880771;29;20096;-86
2023/10/17 11:01:18;;;;;;;5.70;1.60;;;12.50;99.90;;;;;;4879810;29;20108;-87
2023/10/17 11:03:48;;;;;;;4.65;1.45;;;13.70;99.90;;;;;;4880635;29;20056;-88
2023/10/17 11:06:18;;;;;;;5.57;1.70;;;12.50;99.90;;;;;;4895966;29;20104;-88
2023/10/17 11:08:46;;;;;;;5.82;1.70;;;13.60;99.90;;;;;;4904601;29;20050;-89
2023/10/17 11:11:17;;;;;;;5.35;1.60;;;13.30;99.90;;;;;;4936271;29;20059;-89
2023/10/17 11:13:51;;;;;;;6.38;1.50;;;12.50;99.90;;;;;;4933352;29;20126;-89
2023/10/17 11:16:19;;;;;;;5.30;1.70;;;13.50;99.90;;;;;;4902221;29;20079;-89
2023/10/17 11:18:45;;;;;;;5.47;1.50;;;13.80;99.90;;;;;;4902151;29;20043;-89
2023/10/17 11:21:12;;;;;;;8.60;1.80;;;12.60;99.90;;;;;;4901187;29;20055;-90
2023/10/17 11:23:50;;;;;;;6.97;1.80;;;13.90;99.90;;;;;;4902277;29;20123;-90
2023/10/17 11:26:19;;;;;;;7.50;1.95;;;12.70;99.90;;;;;;4901823;29;20048;-89
2023/10/17 11:28:52;;;;;;;6.47;1.73;;;13.90;99.90;;;;;;4901462;29;20043;-89
2023/10/17 11:31:21;;;;;;;7.57;1.85;;;13.80;99.90;;;;;;4901564;29;20503;-89
2023/10/17 11:34:07;;;;;;;6.18;1.90;;;14.10;99.90;;;;;;4901791;29;20420;-90
2023/10/17 11:36:47;;;;;;;5.45;1.83;;;12.80;99.90;;;;;;4899648;29;20048;-91
2023/10/17 11:39:15;;;;;;;5.78;2.30;;;14.10;99.90;;;;;;4932439;29;20136;-85
2023/10/17 11:41:54;;;;;;;7.00;2.13;;;12.90;99.90;;;;;;4902994;29;20048;-90
2023/10/17 11:44:24;;;;;;;6.05;2.00;;;13.60;99.90;;;;;;4904791;29;20084;-89
2023/10/17 11:47:02;;;;;;;6.72;2.03;;;13.50;99.90;;;;;;4900253;29;20083;-89
2023/10/17 11:49:35;;;;;;;7.20;1.80;;;14.30;99.90;;;;;;4931681;29;20776;-89
2023/10/17 11:52:04;;;;;;;7.80;2.10;;;14.30;99.90;;;;;;4936608;29;20090;-90
2023/10/17 11:54:31;;;;;;;8.43;2.20;;;13.10;99.90;;;;;;4901799;29;20052;-90
2023/10/17 11:57:23;;;;;;;6.80;2.00;;;13.80;99.90;;;;;;4933411;29;20040;-91
2023/10/17 11:59:56;;;;;;;6.05;2.05;;;14.00;99.90;;;;;;4901042;29;20508;-90
2023/10/17 12:02:22;;;;;;;6.93;2.08;;;14.60;99.90;;;;;;4902634;29;20055;-90
2023/10/17 12:04:48;;;;;;;8.25;1.98;;;13.80;99.90;;;;;;4900911;29;20111;-90
2023/10/17 12:07:15;;;;;;;8.52;2.10;;;14.10;99.90;;;;;;4901815;29;20082;-87
2023/10/17 12:09:40;;;;;;;6.75;1.77;;;13.40;99.90;;;;;;4901740;29;20047;-89
2023/10/17 12:12:06;;;;;;;7.90;1.90;;;14.10;99.90;;;;;;4933529;29;20052;-88
2023/10/17 12:14:33;;;;;;;4.68;1.70;;;14.30;99.90;;;;;;4901829;29;20049;-87
2023/10/17 12:17:00;;;;;;;4.82;1.60;;;13.90;99.90;;;;;;4901079;29;20047;-87
2023/10/17 12:19:27;;;;;;;6.43;1.98;;;14.60;99.90;;;;;;4918181;29;20056;-87
2023/10/17 12:22:00;;;;;;;6.63;1.83;;;14.40;99.90;;;;;;4932673;29;20052;-88
2023/10/17 12:24:34;;;;;;;7.03;1.80;;;14.10;99.90;;;;;;4900954;29;20480;-85
2023/10/17 12:27:00;;;;;;;3.17;1.40;;;13.60;99.90;;;;;;4918392;29;20052;-86
2023/10/17 12:29:28;;;;;;;6.10;1.77;;;14.50;99.90;;;;;;4901004;29;20489;-85
2023/10/17 12:32:01;;;;;;;7.25;1.80;;;13.70;99.90;;;;;;4900044;29;20094;-85
2023/10/17 12:34:27;;;;;;;7.05;1.80;;;14.40;99.90;;;;;;4916559;29;20408;-86
2023/10/17 12:36:56;;;;;;;4.70;1.50;;;13.80;99.90;;;;;;4916872;29;20056;-86
2023/10/17 12:39:23;;;;;;;5.70;1.67;;;14.70;99.90;;;;;;4899036;29;20078;-86
2023/10/17 12:41:50;;;;;;;6.03;1.70;;;14.90;99.90;;;;;;4900258;29;20136;-85
2023/10/17 12:44:18;;;;;;;6.28;1.70;;;14.40;99.90;;;;;;4898647;29;20108;-86
2023/10/17 12:46:44;;;;;;;6.63;1.70;;;14.80;99.90;;;;;;4899444;29;20036;-85
2023/10/17 12:49:14;;;;;;;5.78;1.60;;;15.00;99.90;;;;;;4931162;29;20048;-85
2023/10/17 12:51:41;;;;;;;6.10;2.00;;;13.70;99.90;;;;;;4899920;29;20447;-86
2023/10/17 12:54:07;;;;;;;6.53;1.80;;;13.60;99.90;;;;;;4916364;29;20052;-86
2023/10/17 12:56:36;;;;;;;7.05;1.90;;;13.30;99.90;;;;;;4899431;29;20381;-86
2023/10/17 12:59:07;;;;;;;4.95;1.70;;;14.00;99.90;;;;;;4899696;29;20492;-87
2023/10/17 13:01:53;;;;;;;7.38;1.88;;;14.30;99.90;;;;;;4898973;29;20048;-87
2023/10/17 13:06:56;;;;;;;5.88;1.83;;;13.50;99.90;;;;;;4828783;23;1095446;-86
2023/10/17 13:09:22;;;;;;;6.95;1.80;;;14.50;99.90;;;;;;4844522;29;20049;-86
2023/10/17 13:11:48;;;;;;;6.50;2.00;;;14.60;99.90;;;;;;5048769;23;20062;-86
2023/10/17 13:14:13;;;;;;;5.78;1.75;;;14.50;99.90;;;;;;4916859;29;20052;-86
2023/10/17 13:16:40;;;;;;;8.35;2.00;;;14.80;99.90;;;;;;4900923;29;20079;-86
2023/10/17 13:19:06;;;;;;;6.43;1.92;;;13.70;99.90;;;;;;4900512;29;20052;-86
2023/10/17 13:21:36;;;;;;;7.15;2.22;;;14.10;99.90;;;;;;4916842;29;20104;-87
2023/10/17 13:24:05;;;;;;;4.63;1.77;;;14.80;99.90;;;;;;4901349;29;20066;-86
2023/10/17 13:26:32;;;;;;;6.95;1.90;;;13.60;99.90;;;;;;4915567;29;20052;-86
2023/10/17 13:28:57;;;;;;;6.93;2.20;;;14.80;99.90;;;;;;4899416;29;20072;-86
2023/10/17 13:31:23;;;;;;;5.28;1.77;;;14.00;99.90;;;;;;4916196;29;20052;-85
2023/10/17 13:38:59;;;;;;;7.72;2.05;;;13.60;99.90;;;;;;4892810;29;20515;-84
2023/10/17 13:41:25;;;;;;;6.95;2.15;;;14.60;99.90;;;;;;4906282;29;20103;-84
2023/10/17 13:43:51;;;;;;;6.18;2.30;;;14.20;99.90;;;;;;4899728;29;20051;-85
2023/10/17 13:46:17;;;;;;;6.45;2.20;;;13.60;99.90;;;;;;4899630;29;20048;-86
2023/10/17 13:48:48;;;;;;;8.82;2.35;;;14.30;99.90;;;;;;4898819;29;20055;-85
2023/10/17 13:51:15;;;;;;;6.47;2.00;;;14.00;99.90;;;;;;4889191;29;20052;-84
2023/10/17 13:53:44;;;;;;;6.78;2.17;;;13.80;99.90;;;;;;4880884;29;20052;-85
2023/10/17 13:56:13;;;;;;;7.65;2.13;;;14.20;99.90;;;;;;4896166;29;20076;-86
2023/10/17 13:58:41;;;;;;;6.63;2.05;;;13.70;99.90;;;;;;4881295;29;20481;-86
2023/10/17 14:03:54;;;;;;;7.95;2.00;;;14.00;99.90;;;;;;4916187;29;20052;-86
2023/10/17 14:06:21;;;;;;;6.90;2.08;;;14.30;99.90;;;;;;4916197;29;20055;-87
2023/10/17 14:08:46;;;;;;;7.97;2.00;;;12.80;99.90;;;;;;4899568;29;20131;-86
2023/10/17 14:11:17;;;;;;;6.47;2.22;;;14.20;99.90;;;;;;4887791;29;20191;-86
2023/10/17 14:13:49;;;;;;;6.00;1.95;;;13.90;99.90;;;;;;4897170;29;20413;-86
2023/10/17 14:16:15;;;;;;;6.80;1.98;;;12.20;99.90;;;;;;4880131;29;20048;-85
2023/10/17 14:18:46;;;;;;;7.43;2.38;;;12.80;99.90;;;;;;4879627;29;20048;-86
2023/10/17 14:23:57;;;;;;;8.90;2.20;;;13.40;99.90;;;;;;4895947;29;20044;-86
2023/10/17 14:26:30;;;;;;;6.20;2.10;;;12.80;99.90;;;;;;4880146;29;20044;-85
2023/10/17 14:29:02;;;;;;;7.70;2.42;;;13.80;99.90;;;;;;4897116;29;20049;-86
2023/10/17 14:31:29;;;;;;;6.65;2.10;;;12.90;99.90;;;;;;4876309;29;20043;-85
2023/10/17 14:33:57;;;;;;;8.10;2.30;;;13.70;99.90;;;;;;4877590;29;20052;-85
2023/10/17 14:36:23;;;;;;;9.65;2.83;;;13.30;99.90;;;;;;4878821;29;20056;-87
2023/10/17 14:38:49;;;;;;;7.70;2.15;;;14.20;99.90;;;;;;4878539;29;20044;-92
2023/10/17 14:41:15;;;;;;;9.48;2.20;;;14.70;99.90;;;;;;4880538;29;20144;-90
2023/10/17 14:43:46;;;;;;;9.27;2.30;;;14.80;99.90;;;;;;4893019;23;20052;-91
2023/10/17 14:46:13;;;;;;;7.40;2.10;;;15.10;99.90;;;;;;4904041;29;20131;-88
2023/10/17 14:48:40;;;;;;;5.88;2.20;;;14.40;99.90;;;;;;4903338;29;20070;-89
2023/10/17 14:51:07;;;;;;;6.90;2.33;;;15.10;99.90;;;;;;4903479;29;20054;-87
2023/10/17 14:53:33;;;;;;;7.20;2.10;;;14.30;99.90;;;;;;4923129;29;20125;-91
2023/10/17 14:55:59;;;;;;;10.52;2.00;;;14.40;99.90;;;;;;4919689;29;20110;-89
2023/10/17 14:58:25;;;;;;;6.72;2.15;;;14.30;99.90;;;;;;4918695;29;20512;-90
2023/10/17 15:00:55;;;;;;;8.00;2.10;;;14.50;99.90;;;;;;4902712;29;20043;-89
2023/10/17 15:03:21;;;;;;;7.45;1.92;;;14.40;99.90;;;;;;4918970;29;20059;-89
2023/10/17 15:05:48;;;;;;;6.28;2.03;;;15.50;99.90;;;;;;4902395;29;20044;-92
2023/10/17 15:08:14;;;;;;;7.75;1.98;;;14.60;99.90;;;;;;4919121;29;20051;-89
2023/10/17 15:10:40;;;;;;;6.75;2.00;;;14.70;99.90;;;;;;4903306;29;20056;-90
2023/10/17 15:13:11;;;;;;;6.35;2.20;;;15.50;99.90;;;;;;4902354;29;20044;-88
2023/10/17 15:15:37;;;;;;;7.88;2.20;;;14.90;99.90;;;;;;4903758;29;20587;-90
2023/10/17 15:18:04;;;;;;;7.70;1.98;;;15.10;99.90;;;;;;4903067;29;20040;-90